Date,TemperatureHighF,TemperatureAvgF,TemperatureLowF,DewpointHighF,DewpointAvgF,DewpointLowF,HumidityHigh,HumidityAvg,HumidityLow,PressureMaxIn,PressureMinIn,WindSpeedMaxMPH,WindSpeedAvgMPH,GustSpeedMaxMPH,PrecipitationSumIn
2013-1-3,20,20,19,13,13,11,75,74,71,30.58,30.55,0,0,0,0.00
2013-1-4,28,21,19,18,14,11,75,73,61,30.65,30.56,0,0,2,0.00
2013-1-5,24,23,22,17,16,16,75,74,74,30.47,30.40,0,0,0,0.00
2013-1-6,32,24,18,24,17,11,76,74,71,30.43,30.28,97,0,97,0.00
2013-1-7,34,28,24,28,21,17,78,76,73,30.34,30.08,5,0,11,0.00
2013-1-8,34,32,30,28,26,25,79,78,76,30.34,30.01,3,0,7,0.00
2013-1-9,38,32,28,30,25,21,80,77,68,30.10,29.88,5,0,9,0.07
2013-1-10,36,27,21,25,19,13,77,71,54,30.24,30.09,8,1,14,0.00
2013-1-11,28,17,8,15,9,0,75,70,52,30.50,30.23,2,0,3,0.00
2013-1-12,22,10,5,14,2,-4,74,69,67,30.60,30.46,1,0,2,0.00
2013-1-13,24,13,3,14,5,-6,73,69,63,30.67,30.56,2,0,2,0.00
2013-1-14,39,27,17,25,17,9,75,66,54,30.67,30.53,9,1,16,0.00
2013-1-15,23,20,17,14,12,10,74,71,68,30.71,30.66,1,0,2,0.00
2013-1-16,24,20,10,16,13,4,76,74,69,30.82,30.73,4,0,6,0.00
2013-1-17,27,21,18,17,14,11,76,72,65,30.80,30.58,2,0,4,0.00
2013-1-18,26,19,15,17,11,8,76,72,67,30.59,30.49,2,0,4,0.00
2013-1-19,27,17,13,18,9,5,74,71,66,30.68,30.58,2,0,4,0.00
2013-1-20,29,17,10,22,10,1,75,72,68,30.75,30.63,2,0,3,0.00
2013-1-21,16,16,15,9,8,8,73,72,71,30.63,30.59,2,0,2,0.00
2013-1-22,18,17,16,10,9,9,71,71,70,30.45,30.41,2,0,3,0.00
2013-1-23,28,22,17,19,14,10,75,71,65,30.41,30.22,2,0,2,0.00
2013-1-24,26,20,11,18,13,4,75,73,70,30.48,30.31,3,0,5,0.00
2013-1-25,34,27,22,25,20,15,77,74,66,30.39,30.19,2,0,2,0.00
2013-1-26,28,27,25,21,19,18,74,73,72,30.20,30.16,2,0,2,0.00
2013-1-27,34,26,19,25,19,13,76,73,68,29.93,29.91,2,0,2,0.00
2013-1-28,35,28,20,27,22,13,77,76,73,29.93,29.86,11,1,11,0.07
2013-1-29,45,39,33,34,30,26,76,69,61,30.19,29.89,17,4,17,0.50
2013-1-30,49,41,32,34,30,25,75,66,56,30.25,30.19,20,4,20,0.00
2013-1-31,48,38,30,34,28,23,77,69,57,30.26,30.19,12,3,12,0.00
2013-2-1,44,30,24,32,22,16,77,72,61,30.42,30.22,3,0,3,0.00
2013-2-2,44,28,22,32,20,15,77,73,64,30.43,30.29,4,0,4,0.00
2013-2-3,46,32,22,32,23,15,77,69,53,30.21,30.09,9,2,9,0.00
2013-2-4,45,34,31,32,26,25,77,73,60,30.11,29.92,3,0,3,0.00
2013-2-5,45,34,28,33,26,20,78,74,60,29.93,29.79,9,1,9,0.02
2013-2-6,44,33,30,35,26,24,78,76,70,30.01,29.88,3,0,3,0.09
2013-2-7,43,33,25,29,24,17,78,70,46,30.08,29.84,9,1,9,0.04
2013-2-8,42,29,18,26,19,10,76,65,47,30.18,30.08,13,1,13,0.00
2013-2-9,42,33,26,28,22,17,73,64,54,30.22,30.08,18,3,18,0.00
2013-2-10,45,28,19,29,19,11,75,70,47,30.25,30.15,5,0,5,0.00
2013-2-11,49,36,22,30,25,15,74,63,47,30.22,30.13,15,3,15,0.00
2013-2-12,48,42,38,33,29,26,66,59,49,30.28,30.14,16,4,16,0.00
2013-2-13,46,41,32,33,29,23,68,62,47,30.36,30.14,17,4,17,0.00
2013-2-14,48,36,27,31,25,19,75,65,49,30.46,30.36,11,2,11,0.00
2013-2-15,48,31,23,34,22,15,75,69,58,30.47,30.22,4,0,4,0.00
2013-2-16,46,31,24,34,22,16,75,70,48,30.22,29.98,16,1,16,0.11
2013-2-17,45,32,25,31,22,17,76,67,46,30.11,30.02,8,1,8,0.00
2013-2-18,39,28,21,27,19,14,74,69,56,30.05,29.76,3,0,3,0.00
2013-2-19,45,30,22,24,19,15,74,64,39,29.91,29.73,8,0,8,0.00
2013-2-20,42,28,17,27,17,9,74,65,46,29.97,29.91,11,1,11,0.01
2013-2-21,42,30,22,30,21,15,75,69,57,29.97,29.92,8,1,8,0.00
2013-2-22,38,32,27,30,24,18,75,72,64,29.93,29.61,10,1,10,0.13
2013-2-23,40,31,26,31,23,18,75,71,65,30.24,29.76,10,1,10,0.28
2013-2-24,43,32,27,31,23,18,75,70,57,30.25,29.96,11,1,11,0.11
2013-2-25,40,33,28,31,24,20,76,70,62,30.15,29.84,15,2,15,0.21
2013-2-26,49,34,26,28,23,18,73,63,37,30.27,30.15,8,1,8,0.02
2013-2-27,48,36,27,29,24,19,75,64,42,30.23,30.12,9,1,9,0.01
2013-2-28,38,32,30,30,24,22,74,71,68,30.29,30.19,2,0,2,0.43
2013-3-1,55,36,31,42,27,-7,75,70,11,30.28,30.22,12,1,12,0.11
2013-3-2,57,39,28,38,27,18,73,63,42,30.22,29.93,8,2,8,0.05
2013-3-3,42,34,26,23,20,16,70,56,36,30.22,30.02,10,3,10,0.00
2013-3-4,45,30,17,24,18,8,70,60,41,30.25,30.03,4,0,4,0.00
2013-3-5,44,31,23,28,20,14,71,63,43,30.03,29.82,2,0,2,0.00
2013-3-6,40,32,28,32,23,18,72,69,65,29.81,29.62,4,0,4,0.07
2013-3-7,52,35,26,34,25,17,72,66,50,30.05,29.80,7,0,7,0.00
2013-3-8,58,34,24,32,22,16,71,61,35,30.15,29.99,8,1,8,0.00
2013-3-9,59,36,20,29,20,12,70,55,21,30.38,30.15,11,1,11,0.00
2013-3-10,52,41,32,32,28,22,70,59,45,30.36,30.25,15,3,15,0.00
2013-3-11,56,38,25,32,24,15,73,60,26,30.32,30.17,13,1,13,0.00
2013-3-12,54,40,31,40,30,21,73,68,54,30.17,30.02,14,2,14,0.08
2013-3-13,56,46,37,41,35,27,74,67,55,30.13,30.04,11,2,11,0.00
2013-3-14,60,43,34,42,31,24,73,63,34,30.11,29.97,20,2,20,0.00
2013-3-15,60,44,33,38,32,23,75,64,43,30.15,30.05,10,2,10,0.00
2013-3-16,52,36,29,37,25,-6,74,65,14,30.06,29.76,13,1,13,0.14
2013-3-17,44,33,28,29,23,17,71,65,49,30.06,29.80,12,2,12,0.15
2013-3-18,34,33,32,24,23,22,69,66,64,30.03,30.00,9,2,9,0.00
2013-3-19,45,33,22,27,21,12,71,63,43,30.19,29.76,7,0,7,0.01
2013-3-20,49,33,30,37,23,14,74,67,45,29.83,29.51,11,1,11,0.65
2013-3-21,50,34,27,27,22,16,73,63,36,30.08,29.82,14,2,14,0.04
2013-3-22,48,31,23,24,17,13,72,57,31,30.27,30.07,10,2,10,0.02
2013-3-23,52,32,22,24,16,9,68,54,23,30.31,30.19,20,1,20,0.00
2013-3-24,47,27,18,26,16,8,69,63,28,30.30,30.15,4,0,4,0.05
2013-3-25,59,33,19,29,18,8,73,57,23,30.17,29.98,6,1,6,0.05
2013-3-26,64,38,21,36,24,12,77,60,26,30.02,29.91,9,1,9,0.00
2013-3-27,58,41,29,38,30,22,78,67,41,30.01,29.93,5,0,5,0.00
2013-3-28,64,41,26,40,30,19,78,67,37,30.11,30.00,8,1,8,0.00
2013-3-29,66,42,26,38,29,19,79,61,27,30.22,30.11,10,1,10,0.00
2013-3-30,68,42,25,42,29,18,80,64,32,30.28,30.10,6,0,6,0.00
2013-3-31,73,44,26,43,32,20,81,65,31,30.13,29.93,6,1,7,0.00
2013-4-1,72,48,27,44,34,21,84,62,29,30.05,29.95,14,2,14,0.00
2013-4-2,64,50,36,42,38,29,81,65,44,30.10,30.04,17,4,17,0.00
2013-4-3,69,49,34,40,35,28,82,61,25,30.11,29.99,10,2,10,0.00
2013-4-4,45,42,41,36,35,34,78,75,71,29.99,29.88,3,0,3,0.00
2013-4-5,52,45,38,43,38,34,88,78,69,29.86,29.74,7,1,7,0.28
2013-4-6,49,41,35,39,34,30,86,76,62,29.88,29.73,10,1,10,0.14
2013-4-7,47,37,30,37,29,24,81,74,61,29.79,29.53,13,1,13,0.40
2013-4-8,38,34,32,32,28,26,79,76,76,29.96,29.77,6,1,6,0.00
2013-4-9,58,42,27,37,30,20,78,64,37,30.27,30.14,4,1,4,0.00
2013-4-10,50,44,40,42,35,32,82,69,57,30.14,29.88,19,3,19,0.24
2013-4-11,43,40,38,33,32,31,78,74,67,30.14,30.11,4,0,6,0.00
2013-4-16,34,31,29,26,24,22,76,75,72,30.34,30.33,0,0,0,0.00
2013-4-17,56,40,25,32,26,18,77,59,32,30.39,30.30,15,2,15,0.00
2013-4-18,57,46,37,37,33,28,75,62,45,30.31,30.13,19,3,19,0.00
2013-4-19,58,48,41,40,37,34,78,66,49,30.13,29.97,17,3,17,0.00
2013-4-20,57,50,46,36,34,32,63,53,44,30.13,30.05,15,4,15,0.00
2013-4-21,54,45,33,35,32,26,75,59,45,30.28,30.08,14,3,14,0.00
2013-4-22,61,41,26,31,22,14,78,53,20,30.43,30.28,9,1,9,0.00
2013-4-23,59,36,27,32,25,20,79,67,29,30.35,30.20,8,1,8,0.00
2013-4-24,68,47,27,35,27,20,81,53,17,30.29,30.01,9,1,9,0.00
2013-4-25,68,52,32,40,35,26,81,56,33,30.10,29.98,9,3,9,0.00
2013-4-26,73,56,40,42,35,22,83,51,15,30.17,30.10,12,3,12,0.00
2013-4-27,62,52,40,42,37,29,77,59,31,30.17,30.07,14,4,14,0.00
2013-4-28,49,48,48,38,37,37,67,66,65,30.08,30.07,15,4,15,0.00
2013-4-29,48,40,34,35,28,24,87,62,43,30.03,29.79,11,3,11,0.20
2013-4-30,54,41,31,30,26,18,75,57,29,30.36,30.02,14,2,14,0.00
2013-5-1,65,43,26,38,25,17,80,57,17,30.54,30.36,8,1,8,0.00
2013-5-2,74,51,30,41,31,21,84,53,15,30.55,30.27,9,1,9,0.00
2013-5-3,78,56,35,44,36,26,82,53,16,30.34,30.16,8,1,8,0.00
2013-5-4,78,54,34,44,36,24,85,56,17,30.31,30.06,13,1,13,0.00
2013-5-5,82,56,35,45,36,24,86,54,13,30.10,29.86,12,1,12,0.00
2013-5-6,86,60,36,44,36,23,84,50,12,29.95,29.77,8,1,8,0.00
2013-5-7,89,64,42,51,44,37,83,53,21,29.94,29.82,9,2,9,0.00
2013-5-8,87,65,45,52,46,39,82,55,23,30.07,29.94,10,2,10,0.00
2013-5-9,89,64,43,49,42,30,83,52,14,30.14,30.03,9,2,9,0.00
2013-5-10,54,46,41,44,39,36,84,78,69,30.17,30.14,2,0,2,0.00
2013-5-14,62,49,37,39,36,31,88,63,36,30.15,30.06,8,2,8,0.00
2013-5-15,66,51,35,44,38,30,85,63,30,30.08,29.91,7,1,7,0.00
2013-5-16,73,54,44,48,43,39,85,68,35,29.96,29.85,4,1,4,0.00
2013-5-17,67,53,43,49,43,39,86,68,51,29.98,29.88,9,2,9,0.01
2013-5-18,65,54,48,41,39,37,69,57,42,30.18,29.98,9,3,9,0.00
2013-5-19,71,53,38,43,39,34,85,61,33,30.27,30.18,7,2,7,0.00
2013-5-20,78,55,37,46,41,33,88,64,24,30.27,29.83,4,1,4,0.00
2013-5-21,49,47,44,42,41,40,84,81,77,29.83,29.75,1,0,1,0.00
2013-5-22,54,44,38,43,38,35,89,81,64,29.94,29.75,5,1,5,0.31
2013-5-23,54,45,38,45,39,35,88,81,66,29.99,29.93,2,0,2,0.08
2013-5-24,62,47,37,48,40,32,88,77,44,29.99,29.93,4,1,4,0.11
2013-5-25,65,50,34,46,39,30,87,69,32,29.99,29.95,8,1,8,0.01
2013-5-26,64,50,40,47,43,37,89,78,53,29.98,29.93,5,1,5,0.02
2013-5-27,47,41,36,42,37,32,88,86,83,29.94,29.88,2,0,2,0.00